Time;durP1;ratioP1;P1;durP2;ratioP2;P2;SDS_P1;SDS_P2;PMS_P1;PMS_P2;Temp;Humidity;BMP_temperature;BMP_pressure;BME280_temperature;BME280_humidity;BME280_pressure;Samples;Min_cycle;Max_cycle;Signal;HPM_P1;HPM_P2
2023/04/15 00:01:58;;;;;;;4.30;2.60;;;;;;;6.95;99.24;100970.66;106057;1252;63068;-90
2023/04/15 00:04:26;;;;;;;6.20;2.30;;;;;;;6.91;99.16;100969.27;106280;1256;60274;-88
2023/04/15 00:06:54;;;;;;;2.40;2.20;;;;;;;6.88;99.34;100969.92;106179;1256;73652;-89
2023/04/15 00:09:27;;;;;;;5.00;2.30;;;;;;;6.88;99.35;100975.99;107992;1252;64827;-85
2023/04/15 00:12:02;;;;;;;2.80;2.50;;;;;;;6.92;99.22;100978.96;108932;1253;72921;-88
2023/04/15 00:14:34;;;;;;;2.80;2.50;;;;;;;6.92;99.00;100974.95;108896;1252;60673;-88
2023/04/15 00:17:06;;;;;;;3.20;2.90;;;;;;;6.90;98.84;100978.67;108709;1252;60249;-87
2023/04/15 00:19:34;;;;;;;5.00;3.80;;;;;;;6.86;98.78;100982.51;108924;1252;73098;-87
2023/04/15 00:22:05;;;;;;;5.80;4.20;;;;;;;6.79;98.69;100973.88;108770;1252;62686;-88
2023/04/15 00:24:36;;;;;;;4.40;2.80;;;;;;;6.81;98.62;100978.68;108819;1251;72512;-86
2023/04/15 00:27:14;;;;;;;2.50;2.30;;;;;;;6.79;98.69;100977.52;108970;1252;60051;-88
2023/04/15 00:29:43;;;;;;;2.70;2.40;;;;;;;6.75;98.81;100982.05;108863;1252;60002;-86
2023/04/15 00:32:14;;;;;;;2.10;1.90;;;;;;;6.74;98.82;100984.17;108868;1252;73542;-89
2023/04/15 00:34:42;;;;;;;3.10;2.50;;;;;;;6.76;98.94;100984.23;108734;1254;64912;-88
2023/04/15 00:37:12;;;;;;;3.50;2.80;;;;;;;6.78;98.82;100989.74;108978;1253;72111;-87
2023/04/15 00:39:41;;;;;;;2.60;2.40;;;;;;;6.75;99.04;100989.66;109172;1252;60210;-86
2023/04/15 00:42:13;;;;;;;4.60;2.40;;;;;;;6.74;99.02;100987.83;109186;1252;60174;-87
2023/04/15 00:44:44;;;;;;;3.70;3.00;;;;;;;6.73;99.04;100989.93;108945;1252;72765;-86
2023/04/15 01:00:44;;;;;;;6.20;4.20;;;;;;;7.00;97.84;100989.59;104274;1285;616158;-85
2023/04/15 01:03:27;;;;;;;6.50;5.10;;;;;;;7.09;97.19;100998.96;105854;1272;192777;-82
2023/04/15 01:05:58;;;;;;;6.00;4.60;;;;;;;7.08;96.84;101003.17;106363;1263;61831;-82
2023/04/15 01:08:30;;;;;;;6.80;4.30;;;;;;;7.05;96.30;101003.13;106261;1264;73088;-83
2023/04/15 01:31:51;;;;;;;5.10;4.40;;;;;;;6.83;95.57;101000.67;103892;1280;615729;-89
2023/04/15 01:34:20;;;;;;;;;;;;;;;6.87;95.61;101009.73;105307;1263;121445;-83
2023/04/15 01:36:47;;;;;;;6.80;5.70;;;;;;;6.86;95.53;101010.48;106279;1263;60620;-85
2023/04/15 01:39:14;;;;;;;8.60;6.10;;;;;;;6.81;95.57;101011.16;105961;1269;72108;-86
2023/04/15 01:41:42;;;;;;;7.10;5.70;;;;;;;6.75;95.75;101012.44;106547;1257;64822;-84
2023/04/15 01:44:09;;;;;;;6.50;5.30;;;;;;;6.72;96.02;101011.36;105937;1257;72450;-86
2023/04/15 01:46:39;;;;;;;5.40;4.60;;;;;;;6.72;96.28;101014.30;105826;1257;60799;-87
2023/04/15 01:49:07;;;;;;;5.20;3.80;;;;;;;6.75;96.35;101014.70;105645;1260;61112;-87
2023/04/15 01:51:34;;;;;;;6.40;4.90;;;;;;;6.76;96.18;101012.75;105565;1257;72976;-87
2023/04/15 01:54:02;;;;;;;7.40;6.10;;;;;;;6.75;96.12;101009.16;106053;1262;64990;-86
2023/04/15 01:56:32;;;;;;;10.20;5.90;;;;;;;6.71;96.28;101007.40;108356;1257;73646;-85
2023/04/15 01:59:00;;;;;;;9.40;6.60;;;;;;;6.69;96.45;101013.38;109224;1257;61269;-86
2023/04/15 02:01:28;;;;;;;6.80;6.00;;;;;;;6.68;96.26;101017.91;105679;1257;60546;-87
2023/04/15 02:04:00;;;;;;;7.50;6.40;;;;;;;6.64;96.05;101018.92;106094;1260;73964;-85
2023/04/15 02:06:30;;;;;;;8.10;3.80;;;;;;;6.55;95.99;101022.91;107575;1259;63824;-85
2023/04/15 02:08:58;;;;;;;6.20;4.30;;;;;;;6.48;96.05;101017.98;109231;1257;72694;-85
2023/04/15 02:11:26;;;;;;;4.70;3.70;;;;;;;6.43;96.18;101010.69;106117;1256;62777;-86
2023/04/15 02:13:53;;;;;;;6.50;4.50;;;;;;;6.42;96.36;101008.63;106006;1263;60653;-86
2023/04/15 02:16:20;;;;;;;4.40;4.00;;;;;;;6.37;96.63;101010.19;105632;1260;73785;-86
2023/04/15 02:18:53;;;;;;;6.60;4.60;;;;;;;6.35;96.99;101010.42;105832;1258;63663;-86
2023/04/15 02:21:21;;;;;;;7.60;4.40;;;;;;;6.36;97.13;101005.56;106075;1256;73459;-86
2023/04/15 02:23:48;;;;;;;6.30;4.70;;;;;;;6.37;97.30;101003.78;107483;1254;60529;-84
2023/04/15 02:26:15;;;;;;;6.70;4.60;;;;;;;6.40;97.46;101008.01;108633;1257;61165;-84
2023/04/15 02:28:42;;;;;;;5.00;4.40;;;;;;;6.40;97.35;101015.63;106428;1254;72979;-87
2023/04/15 02:31:09;;;;;;;4.50;3.00;;;;;;;6.40;97.43;101020.68;106049;1256;63884;-86
2023/04/15 02:33:37;;;;;;;10.30;4.10;;;;;;;6.39;97.21;101016.55;105973;1254;73314;-87
2023/04/15 02:36:05;;;;;;;4.10;3.60;;;;;;;6.36;97.42;101020.66;106133;1254;62944;-86
2023/04/15 02:38:33;;;;;;;6.30;3.00;;;;;;;6.36;97.49;101026.75;105892;1254;61344;-85
2023/04/15 02:41:01;;;;;;;3.80;3.30;;;;;;;6.33;97.42;101028.42;105875;1256;72934;-88
2023/04/15 02:43:29;;;;;;;3.70;2.80;;;;;;;6.31;97.82;101030.58;105995;1256;64702;-87
2023/04/15 02:45:57;;;;;;;4.40;2.90;;;;;;;6.33;97.75;101030.14;105840;1256;74215;-84
2023/04/15 02:48:27;;;;;;;5.20;3.20;;;;;;;6.36;97.65;101034.02;106038;1254;61393;-85
2023/04/15 02:51:10;;;;;;;4.50;3.30;;;;;;;6.38;97.26;101040.02;105939;1253;61129;-88
2023/04/15 02:53:37;;;;;;;4.70;3.90;;;;;;;6.37;96.89;101042.83;106098;1254;73087;-85
2023/04/15 02:56:07;;;;;;;4.50;3.50;;;;;;;6.36;97.03;101045.33;106018;1256;64833;-85
2023/04/15 02:58:35;;;;;;;3.50;3.20;;;;;;;6.34;97.03;101049.73;106011;1254;73582;-87
2023/04/15 03:01:02;;;;;;;6.10;4.20;;;;;;;6.33;96.97;101048.55;106043;1253;61856;-84
2023/04/15 03:03:30;;;;;;;3.90;3.20;;;;;;;6.35;97.16;101054.02;106018;1254;61097;-85
2023/04/15 03:05:57;;;;;;;4.00;3.70;;;;;;;6.38;97.08;101057.39;106260;1253;73072;-86
2023/04/15 03:08:26;;;;;;;3.80;3.40;;;;;;;6.42;96.85;101057.42;106030;1256;64867;-87
2023/04/15 03:10:59;;;;;;;5.00;4.00;;;;;;;6.41;96.44;101059.05;106064;1256;73433;-85
2023/04/15 03:13:26;;;;;;;5.00;4.30;;;;;;;6.38;96.34;101061.91;105950;1254;61142;-86
2023/04/15 03:15:55;;;;;;;4.50;4.10;;;;;;;6.37;96.38;101061.08;105961;1252;61094;-87
2023/04/15 03:18:23;;;;;;;4.60;4.20;;;;;;;6.36;96.11;101068.39;106096;1254;73025;-84
2023/04/15 03:20:49;;;;;;;4.70;3.80;;;;;;;6.33;95.88;101076.15;106387;1253;63647;-86
2023/04/15 03:23:17;;;;;;;6.70;3.60;;;;;;;6.28;95.95;101082.59;106103;1257;73646;-87
2023/04/15 03:25:44;;;;;;;8.60;4.00;;;;;;;6.25;95.65;101088.76;106276;1254;62274;-87
2023/04/15 03:28:11;;;;;;;3.50;3.20;;;;;;;6.21;95.84;101091.14;105931;1256;60283;-86
2023/04/15 03:30:39;;;;;;;7.40;4.30;;;;;;;6.19;96.01;101091.20;106245;1256;74100;-87
2023/04/15 03:33:07;;;;;;;6.00;4.10;;;;;;;6.20;96.31;101095.52;106654;1256;64767;-87
2023/04/15 03:35:35;;;;;;;6.50;3.70;;;;;;;6.22;96.16;101106.05;107324;1253;72642;-86
2023/04/15 03:38:06;;;;;;;5.00;4.00;;;;;;;6.22;96.00;101105.87;106758;1256;61649;-84
2023/04/15 03:40:33;;;;;;;7.50;3.80;;;;;;;6.24;95.79;101117.44;106836;1253;61701;-85
2023/04/15 03:43:00;;;;;;;5.20;3.80;;;;;;;6.25;96.02;101118.46;106154;1252;72917;-84
2023/04/15 03:45:27;;;;;;;3.00;2.80;;;;;;;6.23;95.75;101124.41;106064;1253;64516;-82
2023/04/15 03:47:55;;;;;;;3.50;2.90;;;;;;;6.19;95.78;101123.67;106040;1254;72827;-87
2023/04/15 03:50:28;;;;;;;3.80;2.90;;;;;;;6.16;96.20;101124.65;106103;1256;62843;-87
2023/04/15 03:52:55;;;;;;;4.30;3.10;;;;;;;6.17;96.27;101128.96;106190;1254;61368;-89
2023/04/15 03:55:22;;;;;;;3.90;3.40;;;;;;;6.18;96.33;101125.11;106745;1253;73019;-85
2023/04/15 03:57:48;;;;;;;5.00;4.50;;;;;;;6.19;96.47;101128.71;106343;1253;63942;-87
2023/04/15 04:00:16;;;;;;;6.00;4.70;;;;;;;6.20;96.30;101123.64;106124;1254;73235;-88
2023/04/15 04:02:45;;;;;;;5.70;4.30;;;;;;;6.22;96.10;101130.17;107036;1253;61521;-88
2023/04/15 04:05:12;;;;;;;9.30;6.60;;;;;;;6.24;96.21;101130.99;108432;1252;62164;-86
2023/04/15 04:07:41;;;;;;;7.90;5.80;;;;;;;6.26;95.91;101130.04;109731;1253;73041;-87
2023/04/15 04:10:08;;;;;;;9.30;6.60;;;;;;;6.25;95.97;101133.73;107716;1254;63752;-87
2023/04/15 04:12:35;;;;;;;8.80;6.00;;;;;;;6.22;95.90;101137.29;107837;1254;72530;-86
2023/04/15 04:15:06;;;;;;;9.90;4.80;;;;;;;6.21;95.62;101136.64;108446;1253;62756;-86
2023/04/15 04:17:34;;;;;;;6.30;4.00;;;;;;;6.19;95.48;101136.35;109675;1252;60152;-85
2023/04/15 04:20:01;;;;;;;4.30;3.80;;;;;;;6.19;95.75;101139.65;106812;1252;73055;-87
2023/04/15 04:22:45;;;;;;;5.90;4.30;;;;;;;6.21;95.74;101138.22;106353;1256;64471;-89
2023/04/15 04:25:12;;;;;;;6.00;4.00;;;;;;;6.24;96.23;101141.04;106949;1252;71538;-85
2023/04/15 04:27:39;;;;;;;4.60;4.00;;;;;;;6.29;96.16;101142.80;108008;1252;59477;-87
2023/04/15 04:30:07;;;;;;;4.80;3.70;;;;;;;6.33;95.94;101146.30;107151;1252;60117;-86
2023/04/15 04:32:36;;;;;;;4.80;4.40;;;;;;;6.33;95.39;101148.91;107068;1253;73991;-86
2023/04/15 04:35:07;;;;;;;4.60;3.90;;;;;;;6.32;95.73;101148.95;107258;1256;64815;-87
2023/04/15 04:37:37;;;;;;;5.40;3.90;;;;;;;6.35;95.84;101158.04;106469;1253;73708;-88
2023/04/15 04:40:05;;;;;;;6.20;4.20;;;;;;;6.37;95.81;101162.86;106637;1253;63872;-86
2023/04/15 04:42:32;;;;;;;5.80;4.90;;;;;;;6.35;95.74;101167.09;106303;1252;61338;-86
2023/04/15 04:45:01;;;;;;;8.10;4.30;;;;;;;6.31;95.63;101176.75;106371;1257;73844;-88
2023/04/15 04:47:29;;;;;;;8.30;5.00;;;;;;;6.29;95.81;101178.77;106543;1256;64053;-86
2023/04/15 04:49:57;;;;;;;5.80;5.10;;;;;;;6.26;95.83;101182.68;106480;1257;73927;-87
2023/04/15 04:52:25;;;;;;;6.70;5.70;;;;;;;6.24;95.78;101180.63;106371;1257;62167;-86
2023/04/15 04:54:52;;;;;;;7.40;5.60;;;;;;;6.22;95.80;101179.84;106571;1256;61082;-85
2023/04/15 04:57:19;;;;;;;7.30;5.30;;;;;;;6.18;95.96;101181.68;106302;1253;74420;-89
2023/04/15 04:59:46;;;;;;;6.80;5.00;;;;;;;6.16;96.22;101184.39;106230;1252;65156;-86
2023/04/15 05:02:13;;;;;;;5.10;4.60;;;;;;;6.15;96.34;101184.77;106050;1258;73502;-86
2023/04/15 05:04:40;;;;;;;9.90;5.20;;;;;;;6.13;96.42;101184.48;106133;1257;63121;-83
2023/04/15 05:07:10;;;;;;;7.40;4.80;;;;;;;6.12;96.67;101185.52;106252;1254;61308;-84
2023/04/15 05:09:37;;;;;;;8.80;6.20;;;;;;;6.14;96.42;101184.77;106162;1256;73615;-88
2023/04/15 05:12:06;;;;;;;10.80;7.60;;;;;;;6.15;96.38;101184.73;107548;1252;64831;-85
2023/04/15 05:14:38;;;;;;;10.60;6.70;;;;;;;6.18;96.33;101187.09;108312;1254;73804;-87
2023/04/15 05:17:10;;;;;;;10.00;6.90;;;;;;;6.17;95.41;101185.04;106368;1256;62099;-87
2023/04/15 05:19:38;;;;;;;9.70;7.20;;;;;;;6.16;95.20;101178.30;106617;1253;60118;-88
2023/04/15 05:22:07;;;;;;;8.50;6.50;;;;;;;6.18;95.37;101179.61;106222;1253;73856;-88
2023/04/15 05:24:34;;;;;;;7.10;4.80;;;;;;;6.26;95.42;101188.92;106303;1253;63705;-88
2023/04/15 05:27:04;;;;;;;7.40;5.70;;;;;;;6.32;95.33;101185.94;106383;1254;73373;-89
2023/04/15 05:29:31;;;;;;;10.50;5.30;;;;;;;6.38;94.80;101180.33;106226;1252;61199;-86
2023/04/15 05:31:59;;;;;;;8.10;5.70;;;;;;;6.41;94.96;101175.56;106464;1254;61294;-87
2023/04/15 05:34:26;;;;;;;6.10;5.40;;;;;;;6.42;94.56;101179.54;106544;1254;71898;-88
2023/04/15 05:36:53;;;;;;;7.10;5.20;;;;;;;6.41;94.56;101177.46;106704;1257;63720;-87
2023/04/15 05:39:20;;;;;;;8.30;5.30;;;;;;;6.44;94.70;101185.55;106729;1253;72660;-87
2023/04/15 05:41:47;;;;;;;7.20;4.60;;;;;;;6.45;94.30;101190.02;106583;1253;62129;-88
2023/04/15 05:44:16;;;;;;;9.80;6.20;;;;;;;6.40;94.51;101188.96;106427;1253;61215;-87
2023/04/15 05:46:44;;;;;;;7.50;4.50;;;;;;;6.35;94.67;101192.44;106278;1252;74741;-88
2023/04/15 05:49:11;;;;;;;7.80;5.60;;;;;;;6.32;94.57;101199.85;106589;1256;64090;-85
2023/04/15 05:51:38;;;;;;;5.80;5.10;;;;;;;6.31;94.90;101201.41;106355;1253;73363;-87
2023/04/15 05:54:10;;;;;;;8.30;6.40;;;;;;;6.32;94.46;101198.63;106212;1253;61928;-88
2023/04/15 05:56:39;;;;;;;12.10;7.20;;;;;;;6.31;94.72;101196.39;106506;1252;61188;-86
2023/04/15 05:59:07;;;;;;;10.40;7.60;;;;;;;6.30;94.81;101195.55;106544;1254;74899;-85
2023/04/15 06:01:36;;;;;;;11.00;6.80;;;;;;;6.32;94.85;101196.71;107204;1256;65287;-87
2023/04/15 06:04:04;;;;;;;6.40;5.30;;;;;;;6.32;94.69;101192.88;106595;1254;73590;-86
2023/04/15 06:06:32;;;;;;;9.30;5.60;;;;;;;6.33;94.63;101196.14;106692;1254;61230;-86
2023/04/15 06:08:59;;;;;;;7.00;5.80;;;;;;;6.34;94.75;101201.51;106749;1252;61240;-88
2023/04/15 06:11:32;;;;;;;8.40;6.30;;;;;;;6.37;94.86;101206.98;107281;1254;75003;-87
2023/04/15 06:14:00;;;;;;;5.00;3.90;;;;;;;6.41;94.48;101209.60;108820;1253;64663;-87
2023/04/15 06:16:28;;;;;;;5.00;4.40;;;;;;;6.44;94.09;101214.72;109753;1253;72566;-85
2023/04/15 06:18:55;;;;;;;5.60;4.00;;;;;;;6.48;93.48;101222.75;107054;1256;60711;-85
2023/04/15 06:21:22;;;;;;;4.70;4.20;;;;;;;6.48;93.07;101221.89;107048;1252;60663;-85
2023/04/15 06:23:49;;;;;;;5.40;3.70;;;;;;;6.46;93.06;101224.92;108087;1252;74769;-83
2023/04/15 06:26:18;;;;;;;4.50;3.80;;;;;;;6.43;92.77;101223.80;109709;1253;63619;-86
2023/04/15 06:28:45;;;;;;;5.30;4.60;;;;;;;6.41;93.17;101228.52;106743;1253;72516;-84
2023/04/15 06:31:12;;;;;;;5.30;4.10;;;;;;;6.39;92.93;101234.31;106542;1254;61274;-87
2023/04/15 06:33:39;;;;;;;8.70;5.50;;;;;;;6.37;92.62;101235.45;106322;1254;61089;-88
2023/04/15 06:36:07;;;;;;;4.90;3.30;;;;;;;6.38;92.70;101246.18;106450;1253;73671;-86
2023/04/15 06:38:36;;;;;;;7.80;3.00;;;;;;;6.39;92.47;101253.61;106525;1254;63783;-90
2023/04/15 06:41:05;;;;;;;7.00;4.80;;;;;;;6.38;92.60;101255.02;106538;1254;73586;-85
2023/04/15 06:43:32;;;;;;;9.40;4.40;;;;;;;6.38;92.66;101256.05;106859;1256;61372;-86
2023/04/15 06:45:59;;;;;;;4.00;3.70;;;;;;;6.40;92.59;101269.55;107420;1254;61294;-86
2023/04/15 06:48:28;;;;;;;5.40;4.50;;;;;;;6.40;92.75;101263.81;107206;1254;74845;-88
2023/04/15 06:50:57;;;;;;;5.60;4.30;;;;;;;6.42;92.72;101270.02;106487;1256;63900;-83
2023/04/15 06:53:29;;;;;;;5.10;4.60;;;;;;;6.41;92.71;101272.30;106212;1253;73575;-86
2023/04/15 06:55:57;;;;;;;5.40;4.30;;;;;;;6.39;93.03;101271.30;106565;1253;62752;-87
2023/04/15 06:58:24;;;;;;;7.00;5.20;;;;;;;6.43;93.27;101275.02;106796;1253;61065;-87
2023/04/15 07:00:52;;;;;;;8.60;5.60;;;;;;;6.46;93.25;101276.31;106543;1253;74746;-86
2023/04/15 07:03:30;;;;;;;10.50;7.20;;;;;;;6.47;93.31;101280.80;107016;1255;62481;-86
2023/04/15 07:06:00;;;;;;;12.60;8.20;;;;;;;6.49;93.19;101272.58;106381;1254;73963;-87
2023/04/15 07:08:32;;;;;;;12.30;5.60;;;;;;;6.50;92.76;101276.02;107076;1253;61433;-86
2023/04/15 07:11:01;;;;;;;5.10;3.90;;;;;;;6.50;92.61;101278.77;109233;1252;60591;-86
2023/04/15 07:13:30;;;;;;;4.40;4.00;;;;;;;6.53;92.49;101280.45;109556;1252;73760;-87
2023/04/15 07:15:57;;;;;;;6.20;4.20;;;;;;;6.59;92.20;101287.51;109503;1252;64207;-87
2023/04/15 07:18:26;;;;;;;7.00;4.30;;;;;;;6.64;92.16;101285.42;109800;1253;72775;-87
2023/04/15 07:20:55;;;;;;;9.80;4.80;;;;;;;6.73;92.30;101297.48;109779;1252;62088;-88
2023/04/15 07:23:24;;;;;;;5.90;4.60;;;;;;;6.80;91.40;101296.91;109819;1254;60356;-87
2023/04/15 07:25:53;;;;;;;8.70;4.90;;;;;;;6.86;90.95;101297.21;109759;1252;74782;-87
2023/04/15 07:28:20;;;;;;;5.90;5.20;;;;;;;6.93;90.47;101300.81;109713;1253;63828;-86
2023/04/15 07:30:48;;;;;;;4.30;3.90;;;;;;;6.99;90.07;101303.57;109564;1252;72380;-88
2023/04/15 07:33:19;;;;;;;5.60;3.30;;;;;;;7.04;89.40;101301.99;109828;1252;59255;-86
2023/04/15 07:35:48;;;;;;;6.20;3.40;;;;;;;7.08;89.01;101309.19;108506;1254;60431;-88
2023/04/15 07:38:15;;;;;;;3.30;2.20;;;;;;;7.08;88.88;101305.17;106612;1253;74776;-87
2023/04/15 07:40:45;;;;;;;3.20;2.60;;;;;;;7.09;88.51;101311.58;107574;1256;64621;-84
2023/04/15 07:43:14;;;;;;;2.90;2.40;;;;;;;7.09;88.02;101314.55;107417;1252;73641;-86
2023/04/15 07:45:43;;;;;;;6.60;4.60;;;;;;;7.07;88.12;101317.56;107932;1254;60539;-88
2023/04/15 07:48:16;;;;;;;6.70;4.40;;;;;;;7.08;88.28;101314.21;107816;1256;61433;-89
2023/04/15 07:50:52;;;;;;;18.70;8.00;;;;;;;7.13;88.53;101314.92;107917;1252;73653;-88
2023/04/15 07:53:22;;;;;;;12.00;7.80;;;;;;;7.17;88.38;101310.96;107605;1252;64499;-89
2023/04/15 07:55:50;;;;;;;10.40;5.20;;;;;;;7.21;88.18;101310.13;107769;1252;73693;-87
2023/04/15 07:58:23;;;;;;;5.50;4.60;;;;;;;7.26;87.70;101315.18;108024;1252;60467;-88
2023/04/15 08:00:53;;;;;;;4.70;3.90;;;;;;;7.26;87.66;101314.80;108771;1252;60450;-86
2023/04/15 08:03:22;;;;;;;5.80;3.00;;;;;;;7.29;87.24;101315.08;107353;1254;74944;-89
2023/04/15 08:05:52;;;;;;;2.70;2.50;;;;;;;7.27;87.10;101316.88;107496;1253;65101;-88
2023/04/15 08:08:26;;;;;;;4.10;3.30;;;;;;;7.27;87.41;101317.06;107840;1256;73037;-89
2023/04/15 08:10:55;;;;;;;3.60;3.30;;;;;;;7.32;87.84;101317.04;107585;1253;60804;-87
2023/04/15 08:13:22;;;;;;;6.80;5.10;;;;;;;7.37;87.64;101313.55;107131;1252;60505;-88
2023/04/15 08:16:24;;;;;;;5.70;4.80;;;;;;;7.43;87.25;101316.13;106481;1253;74840;-89
2023/04/15 08:18:54;;;;;;;6.80;4.20;;;;;;;7.49;86.49;101314.52;107225;1252;63770;-86
2023/04/15 08:21:23;;;;;;;6.80;5.60;;;;;;;7.53;86.23;101313.88;107714;1253;72786;-90
2023/04/15 08:23:52;;;;;;;6.40;5.00;;;;;;;7.54;85.90;101314.52;109619;1252;60104;-87
2023/04/15 08:26:22;;;;;;;8.60;5.20;;;;;;;7.52;85.17;101312.50;108816;1253;60453;-87
2023/04/15 08:28:54;;;;;;;7.00;5.40;;;;;;;7.50;85.42;101308.08;106667;1256;74867;-87
2023/04/15 08:31:21;;;;;;;5.30;4.30;;;;;;;7.47;85.26;101295.47;107713;1254;62836;-87
2023/04/15 08:33:52;;;;;;;7.10;4.50;;;;;;;7.49;85.05;101308.95;109424;1254;73709;-87
2023/04/15 08:36:19;;;;;;;5.70;4.10;;;;;;;7.46;85.01;101300.35;109631;1253;61375;-88
2023/04/15 08:38:50;;;;;;;7.40;5.30;;;;;;;7.44;85.41;101300.25;109771;1253;60072;-89
2023/04/15 08:41:22;;;;;;;8.00;5.90;;;;;;;7.47;85.87;101296.30;109836;1252;73758;-87
2023/04/15 08:43:58;;;;;;;7.40;5.20;;;;;;;7.55;85.86;101305.25;109854;1252;63504;-88
2023/04/15 08:46:28;;;;;;;6.00;5.20;;;;;;;7.63;86.03;101301.66;109625;1254;72356;-87
2023/04/15 08:48:57;;;;;;;4.10;3.70;;;;;;;7.69;85.58;101307.17;109604;1254;60483;-87
2023/04/15 08:51:28;;;;;;;3.80;3.50;;;;;;;7.75;85.41;101309.23;109579;1253;59259;-88
2023/04/15 08:53:56;;;;;;;10.00;4.30;;;;;;;7.79;85.08;101320.74;109420;1254;74849;-85
2023/04/15 08:56:25;;;;;;;3.90;3.50;;;;;;;7.78;84.98;101318.88;109457;1253;63435;-89
2023/04/15 08:58:52;;;;;;;5.70;4.50;;;;;;;7.75;85.56;101318.11;109553;1252;72437;-86
2023/04/15 09:01:20;;;;;;;3.90;3.50;;;;;;;7.76;85.95;101326.06;108917;1254;61407;-87
2023/04/15 09:03:48;;;;;;;3.70;3.20;;;;;;;7.78;85.92;101323.75;106300;1252;60783;-88
2023/04/15 09:06:16;;;;;;;9.40;3.00;;;;;;;7.81;86.04;101323.80;106395;1252;73884;-86
2023/04/15 09:08:44;;;;;;;2.60;2.40;;;;;;;7.85;85.94;101331.85;106447;1253;64968;-84
2023/04/15 09:11:13;;;;;;;2.80;2.60;;;;;;;7.85;85.67;101332.52;106445;1253;72472;-86
2023/04/15 09:13:40;;;;;;;3.90;3.50;;;;;;;7.86;85.63;101334.92;106210;1254;61675;-86
2023/04/15 09:16:08;;;;;;;4.00;3.60;;;;;;;7.90;85.78;101335.64;106038;1254;61979;-87
2023/04/15 09:18:37;;;;;;;5.70;4.50;;;;;;;7.96;85.72;101335.44;105990;1256;74972;-89
2023/04/15 09:21:10;;;;;;;5.90;4.30;;;;;;;7.99;85.74;101336.04;106391;1254;64862;-88
2023/04/15 09:23:39;;;;;;;6.70;4.80;;;;;;;8.02;85.44;101341.98;106385;1254;72662;-85
2023/04/15 09:26:06;;;;;;;8.40;4.80;;;;;;;8.02;84.87;101343.37;105932;1254;61642;-84
2023/04/15 09:28:36;;;;;;;6.70;4.50;;;;;;;7.98;85.04;101342.50;106254;1256;60437;-87
2023/04/15 09:31:03;;;;;;;9.00;6.00;;;;;;;7.96;85.19;101342.23;106809;1254;73733;-88
2023/04/15 09:33:30;;;;;;;7.20;5.70;;;;;;;7.98;85.33;101346.30;106184;1254;65485;-86
2023/04/15 09:35:59;;;;;;;10.70;6.10;;;;;;;8.03;84.95;101348.39;106317;1253;73590;-86
2023/04/15 09:38:27;;;;;;;9.60;7.20;;;;;;;8.06;84.77;101350.37;106198;1254;61343;-88
2023/04/15 09:40:54;;;;;;;8.10;5.00;;;;;;;8.10;85.01;101352.13;106159;1254;61080;-86
2023/04/15 09:43:41;;;;;;;9.40;5.40;;;;;;;8.16;84.58;101349.81;106047;1254;74569;-87
2023/04/15 09:46:08;;;;;;;6.30;5.50;;;;;;;8.16;84.41;101349.84;106128;1254;63653;-89
2023/04/15 09:48:36;;;;;;;8.50;5.50;;;;;;;8.14;84.74;101354.61;106445;1254;72500;-87
2023/04/15 09:51:03;;;;;;;5.20;4.20;;;;;;;8.16;84.79;101353.46;106344;1252;60471;-87
2023/04/15 09:53:35;;;;;;;5.40;4.80;;;;;;;8.17;84.11;101359.35;106187;1255;61173;-87
2023/04/15 09:56:03;;;;;;;5.70;5.20;;;;;;;8.13;83.88;101356.90;106285;1254;74830;-86
2023/04/15 09:58:32;;;;;;;6.20;5.00;;;;;;;8.07;83.79;101371.91;105947;1256;64605;-83
2023/04/15 10:01:02;;;;;;;9.00;4.80;;;;;;;8.05;83.76;101372.70;105963;1256;73692;-88
2023/04/15 10:03:32;;;;;;;4.20;3.50;;;;;;;8.03;83.77;101374.16;105961;1253;62964;-86
2023/04/15 10:06:00;;;;;;;5.40;4.90;;;;;;;8.02;83.84;101377.86;106089;1256;60495;-88
2023/04/15 10:08:31;;;;;;;4.60;4.10;;;;;;;8.01;84.30;101376.67;106193;1254;73729;-88
2023/04/15 10:11:00;;;;;;;8.30;5.90;;;;;;;8.06;84.42;101380.85;106250;1254;63221;-88
2023/04/15 10:13:35;;;;;;;6.80;5.40;;;;;;;8.12;83.91;101390.05;106141;1256;74087;-88
2023/04/15 10:16:08;;;;;;;4.40;4.00;;;;;;;8.15;83.92;101385.74;106089;1255;60320;-87
2023/04/15 10:18:38;;;;;;;4.70;3.80;;;;;;;8.16;83.91;101385.89;106051;1254;61566;-84
2023/04/15 10:21:04;;;;;;;4.70;3.60;;;;;;;8.16;83.65;101394.08;106901;1256;74969;-89
2023/04/15 10:23:31;;;;;;;3.50;3.20;;;;;;;8.13;83.84;101398.02;105937;1253;63894;-91
2023/04/15 10:25:58;;;;;;;3.40;3.10;;;;;;;8.08;83.85;101402.00;106098;1256;73604;-86
2023/04/15 10:28:26;;;;;;;3.10;2.90;;;;;;;8.07;83.96;101401.02;106970;1252;62095;-86
2023/04/15 10:30:53;;;;;;;3.80;3.40;;;;;;;8.07;84.16;101404.13;107982;1253;60606;-86
2023/04/15 10:33:22;;;;;;;5.60;3.20;;;;;;;8.12;84.20;101402.38;109526;1254;73755;-87
2023/04/15 10:35:50;;;;;;;3.70;3.40;;;;;;;8.17;84.32;101395.23;107417;1256;63769;-87
2023/04/15 10:38:34;;;;;;;4.50;3.60;;;;;;;8.24;83.97;101399.86;106838;1253;72411;-90
2023/04/15 10:41:20;;;;;;;6.40;5.80;;;;;;;8.30;83.56;101402.95;108013;1253;60895;-88
2023/04/15 10:43:55;;;;;;;4.80;4.20;;;;;;;8.34;83.53;101400.18;109607;1252;59922;-85
2023/04/15 10:46:43;;;;;;;6.20;4.60;;;;;;;8.33;83.03;101401.80;107212;1256;73633;-89
2023/04/15 10:49:25;;;;;;;9.00;6.90;;;;;;;8.28;83.16;101390.45;106440;1254;65495;-87
2023/04/15 10:51:56;;;;;;;9.70;8.60;;;;;;;8.28;83.53;101397.80;106457;1253;72797;-83
2023/04/15 10:54:23;;;;;;;10.80;8.90;;;;;;;8.29;83.67;101394.77;106343;1254;61605;-85
2023/04/15 10:57:13;;;;;;;14.80;11.40;;;;;;;8.30;83.52;101395.77;106353;1256;60411;-86
2023/04/15 11:00:03;;;;;;;9.20;7.10;;;;;;;8.32;83.43;101391.73;107126;1254;73875;-85
2023/04/15 11:02:45;;;;;;;9.10;6.50;;;;;;;8.34;83.67;101399.30;107010;1256;64780;-87
2023/04/15 11:05:16;;;;;;;6.80;5.70;;;;;;;8.38;83.51;101398.46;106145;1254;72790;-90
2023/04/15 11:07:45;;;;;;;9.60;5.80;;;;;;;8.43;83.96;101400.23;106201;1257;61108;-85
2023/04/15 11:10:12;;;;;;;11.10;9.40;;;;;;;8.51;83.46;101390.14;106973;1253;61120;-87
2023/04/15 11:12:40;;;;;;;11.10;8.20;;;;;;;8.55;83.29;101399.05;106609;1253;74931;-85
2023/04/15 11:15:29;;;;;;;9.80;8.40;;;;;;;8.58;83.20;101396.16;106154;1256;63563;-90
2023/04/15 11:17:57;;;;;;;13.90;10.00;;;;;;;8.57;82.96;101393.58;105870;1254;73789;-88
2023/04/15 11:20:25;;;;;;;7.60;6.00;;;;;;;8.56;83.41;101389.08;105947;1255;61326;-89
2023/04/15 11:22:53;;;;;;;8.70;6.00;;;;;;;8.58;83.62;101385.17;106080;1256;60450;-87
2023/04/15 11:25:40;;;;;;;8.30;7.50;;;;;;;8.61;83.41;101394.80;105975;1257;73841;-88
2023/04/15 11:28:07;;;;;;;9.10;8.20;;;;;;;8.63;83.46;101392.11;105938;1256;65377;-88
2023/04/15 11:30:36;;;;;;;13.70;8.10;;;;;;;8.68;83.73;101390.70;106006;1254;73725;-89
2023/04/15 11:33:04;;;;;;;8.60;6.70;;;;;;;8.76;83.18;101393.71;105991;1254;62961;-88
2023/04/15 11:35:32;;;;;;;11.40;8.90;;;;;;;8.78;83.06;101384.38;105929;1254;61286;-90
2023/04/15 11:38:09;;;;;;;11.30;8.10;;;;;;;8.81;83.31;101390.19;106905;1252;73817;-88
2023/04/15 11:40:37;;;;;;;6.90;6.20;;;;;;;8.84;83.15;101387.27;107154;1256;64929;-88
2023/04/15 11:43:19;;;;;;;5.20;4.80;;;;;;;8.86;82.98;101389.98;106053;1254;74222;-88
2023/04/15 11:45:48;;;;;;;7.60;5.40;;;;;;;8.89;82.47;101389.85;106126;1256;60517;-88
2023/04/15 11:48:15;;;;;;;7.70;7.00;;;;;;;8.89;82.67;101388.65;106269;1254;61287;-88
2023/04/15 11:50:42;;;;;;;10.30;6.20;;;;;;;8.86;82.52;101390.52;106367;1255;73816;-88
2023/04/15 11:53:11;;;;;;;6.20;5.30;;;;;;;8.84;82.06;101391.65;106212;1256;63134;-87
2023/04/15 11:55:43;;;;;;;5.50;5.00;;;;;;;8.79;82.16;101390.10;106439;1254;73403;-88
2023/04/15 11:58:15;;;;;;;8.90;6.60;;;;;;;8.76;82.22;101389.16;106447;1257;61705;-89
2023/04/15 12:00:51;;;;;;;6.70;6.00;;;;;;;8.72;81.95;101388.28;106302;1254;60591;-88
2023/04/15 12:03:25;;;;;;;6.60;5.60;;;;;;;8.66;82.17;101390.78;105959;1256;74780;-87
2023/04/15 12:06:16;;;;;;;5.80;4.70;;;;;;;8.62;82.26;101387.80;105996;1256;64528;-88
2023/04/15 12:08:57;;;;;;;7.10;6.10;;;;;;;8.59;82.83;101392.27;106050;1256;73741;-87
2023/04/15 12:11:25;;;;;;;10.40;6.00;;;;;;;8.57;83.10;101389.06;106571;1257;60414;-87